createdAt,value
2023-03-31T00:00:00.285Z,9.3
2023-03-31T00:05:00.342Z,14.5
2023-03-31T00:10:16.000Z,15.4
2023-03-31T00:15:00.296Z,14.9
2023-03-31T00:20:00.282Z,12.2
2023-03-31T00:25:00.286Z,12.6
2023-03-31T00:30:00.284Z,14.5
2023-03-31T00:35:00.289Z,10.7
2023-03-31T00:40:00.246Z,14.4
2023-03-31T00:45:00.306Z,16.2
2023-03-31T00:50:00.290Z,12.8
2023-03-31T00:55:00.298Z,12.2
2023-03-31T01:00:00.326Z,6.9
2023-03-31T01:05:00.289Z,12.7
2023-03-31T01:10:00.341Z,20.3
2023-03-31T01:15:00.296Z,10.4
2023-03-31T01:20:00.267Z,9.1
2023-03-31T01:25:00.431Z,16.6
2023-03-31T01:30:00.275Z,10.2
2023-03-31T01:35:00.293Z,13.3
2023-03-31T01:40:00.292Z,14.0
2023-03-31T01:45:00.297Z,16.5
2023-03-31T01:50:00.238Z,16.2
2023-03-31T01:55:00.298Z,15.8
2023-03-31T02:00:00.245Z,16.7
2023-03-31T02:05:00.292Z,9.0
2023-03-31T02:10:00.300Z,13.4
2023-03-31T02:15:00.272Z,13.0
2023-03-31T02:20:00.254Z,9.2
2023-03-31T02:25:00.286Z,21.1
2023-03-31T02:30:00.275Z,9.0
2023-03-31T02:35:00.299Z,12.9
2023-03-31T02:40:00.278Z,12.1
2023-03-31T02:45:00.280Z,14.0
2023-03-31T02:50:00.284Z,10.0
2023-03-31T02:55:00.241Z,13.1
2023-03-31T03:00:00.307Z,11.0
2023-03-31T03:05:00.272Z,12.0
2023-03-31T03:10:00.307Z,12.7
2023-03-31T03:15:00.301Z,12.0
2023-03-31T03:20:00.346Z,12.2
2023-03-31T03:25:00.317Z,13.0
2023-03-31T03:30:00.240Z,12.3
2023-03-31T03:35:00.290Z,12.5
2023-03-31T03:40:00.276Z,13.4
2023-03-31T03:45:00.276Z,10.7
2023-03-31T03:50:00.243Z,10.6
2023-03-31T03:55:00.324Z,16.1
2023-03-31T04:00:00.235Z,12.9
2023-03-31T04:05:00.444Z,14.3
2023-03-31T04:10:00.282Z,13.1
2023-03-31T04:15:00.286Z,12.4
2023-03-31T04:20:00.246Z,11.0
2023-03-31T04:25:00.360Z,15.5
2023-03-31T04:30:00.239Z,12.5
2023-03-31T04:35:00.288Z,13.0
2023-03-31T04:40:00.277Z,10.9
2023-03-31T04:45:00.303Z,11.0
2023-03-31T04:50:00.258Z,13.9
2023-03-31T04:55:00.282Z,11.9
2023-03-31T05:00:00.236Z,12.3
2023-03-31T05:05:00.280Z,13.2
2023-03-31T05:10:00.277Z,15.8
2023-03-31T05:15:00.317Z,14.5
2023-03-31T05:20:00.309Z,13.8
2023-03-31T05:25:00.258Z,12.2
2023-03-31T05:30:00.600Z,13.1
2023-03-31T05:35:00.260Z,13.9
2023-03-31T05:40:00.321Z,12.5
2023-03-31T05:45:00.313Z,14.1
2023-03-31T05:50:00.282Z,12.3
2023-03-31T05:55:00.265Z,11.5
2023-03-31T06:00:00.288Z,13.7
2023-03-31T06:05:00.265Z,11.5
2023-03-31T06:10:00.296Z,15.5
2023-03-31T06:15:00.248Z,12.1
2023-03-31T06:20:00.300Z,13.2
2023-03-31T06:25:00.264Z,11.9
2023-03-31T06:30:00.289Z,9.7
2023-03-31T06:35:00.285Z,16.6
2023-03-31T06:40:00.308Z,10.1
2023-03-31T06:45:00.281Z,13.6
2023-03-31T06:50:00.288Z,12.6
2023-03-31T06:55:00.284Z,12.8
2023-03-31T07:00:00.311Z,15.5
2023-03-31T07:05:00.348Z,15.5
2023-03-31T07:10:00.299Z,12.4
2023-03-31T07:15:00.269Z,11.1
2023-03-31T07:20:00.288Z,13.6
2023-03-31T07:25:00.307Z,13.1
2023-03-31T07:30:00.301Z,11.9
2023-03-31T07:35:00.229Z,10.8
2023-03-31T07:40:00.284Z,13.4
2023-03-31T07:45:00.280Z,11.9
2023-03-31T07:50:00.308Z,10.4
2023-03-31T07:55:00.263Z,10.1
2023-03-31T08:00:00.275Z,10.8
2023-03-31T08:05:00.265Z,7.7
2023-03-31T08:10:00.285Z,15.9
2023-03-31T08:15:00.230Z,8.2
2023-03-31T08:20:05.165Z,9.1
2023-03-31T08:25:00.239Z,8.8
2023-03-31T08:30:00.292Z,9.3
2023-03-31T08:35:00.299Z,7.3
2023-03-31T08:40:00.303Z,7.2
2023-03-31T08:45:00.258Z,12.4
2023-03-31T08:50:00.270Z,6.3
2023-03-31T08:55:00.278Z,6.7
2023-03-31T09:00:00.335Z,7.1
2023-03-31T09:05:00.256Z,5.3
2023-03-31T09:10:00.330Z,5.7
2023-03-31T09:15:00.309Z,4.7
2023-03-31T09:20:00.295Z,6.4
2023-03-31T09:25:00.244Z,9.9
2023-03-31T09:30:00.332Z,5.8
2023-03-31T09:35:00.252Z,6.1
2023-03-31T09:40:00.317Z,5.1
2023-03-31T09:45:00.292Z,3.0
2023-03-31T09:50:00.365Z,6.0
2023-03-31T09:55:00.265Z,5.6
2023-03-31T10:00:00.311Z,3.7
2023-03-31T10:05:00.260Z,6.4
2023-03-31T10:10:00.297Z,5.9
2023-03-31T10:15:00.253Z,7.9
2023-03-31T10:20:00.298Z,6.2
2023-03-31T10:25:00.299Z,5.8
2023-03-31T10:30:00.370Z,8.5
2023-03-31T10:35:00.249Z,5.8
2023-03-31T10:40:00.291Z,5.9
2023-03-31T10:45:00.249Z,6.7
2023-03-31T10:50:00.333Z,6.0
2023-03-31T10:55:00.293Z,6.7
2023-03-31T11:00:00.277Z,5.7
2023-03-31T11:05:00.290Z,5.2
2023-03-31T11:10:00.330Z,4.6
2023-03-31T11:15:00.274Z,3.9
2023-03-31T11:20:00.279Z,6.6
2023-03-31T11:25:00.293Z,6.7
2023-03-31T11:30:00.341Z,4.9
2023-03-31T11:35:00.278Z,4.3
2023-03-31T11:40:00.294Z,4.5
2023-03-31T11:45:00.322Z,7.6
2023-03-31T11:50:00.295Z,7.0
2023-03-31T11:55:02.878Z,3.5
2023-03-31T12:00:00.306Z,3.3
2023-03-31T12:05:00.267Z,4.8
2023-03-31T12:10:00.302Z,5.7
2023-03-31T12:15:00.237Z,5.4
2023-03-31T12:20:00.284Z,4.9
2023-03-31T12:25:00.248Z,5.7
2023-03-31T12:30:00.287Z,6.9
2023-03-31T12:35:00.306Z,4.5
2023-03-31T12:40:00.298Z,7.0
2023-03-31T12:45:00.238Z,6.1
2023-03-31T12:50:00.275Z,7.8
2023-03-31T12:55:00.327Z,6.3
2023-03-31T13:00:00.296Z,7.7
2023-03-31T13:05:00.248Z,7.7
2023-03-31T13:10:00.303Z,5.5
2023-03-31T13:15:00.567Z,4.9
2023-03-31T13:20:00.298Z,4.5
2023-03-31T13:25:00.263Z,7.5
2023-03-31T13:30:00.291Z,8.3
2023-03-31T13:35:00.292Z,5.5
2023-03-31T13:40:00.273Z,6.1
2023-03-31T13:45:00.264Z,5.9
2023-03-31T13:50:00.295Z,6.8
2023-03-31T13:55:00.283Z,6.8
2023-03-31T14:00:00.286Z,5.2
2023-03-31T14:05:00.252Z,3.9
2023-03-31T14:10:00.317Z,9.2
2023-03-31T14:15:00.262Z,5.4
2023-03-31T14:20:00.332Z,5.1
2023-03-31T14:25:00.297Z,4.2
2023-03-31T14:30:00.308Z,3.2
2023-03-31T14:35:00.316Z,3.0
2023-03-31T14:40:00.659Z,5.8
2023-03-31T14:45:00.302Z,3.8
2023-03-31T14:50:00.299Z,4.9
2023-03-31T14:55:00.250Z,4.2
2023-03-31T15:00:00.279Z,5.3
2023-03-31T15:05:00.362Z,3.6
2023-03-31T15:10:00.283Z,6.0
2023-03-31T15:15:00.275Z,1.8
2023-03-31T15:20:00.747Z,3.2
2023-03-31T15:25:00.281Z,4.9
2023-03-31T15:30:00.277Z,9.0
2023-03-31T15:35:11.015Z,5.6
2023-03-31T15:40:00.518Z,4.6
2023-03-31T15:45:00.305Z,3.4
2023-03-31T15:50:00.257Z,5.4
2023-03-31T15:55:00.326Z,4.6
2023-03-31T16:00:01.458Z,9.2
2023-03-31T16:05:01.455Z,11.6
2023-03-31T16:10:00.292Z,8.1
2023-03-31T16:15:00.261Z,7.0
2023-03-31T16:20:00.294Z,4.1
2023-03-31T16:25:00.298Z,4.4
2023-03-31T16:30:00.290Z,5.7
2023-03-31T16:35:00.275Z,6.3
2023-03-31T16:40:00.413Z,4.2
2023-03-31T16:45:13.674Z,7.5
2023-03-31T16:50:00.378Z,6.1
2023-03-31T16:55:00.318Z,7.3
2023-03-31T17:00:00.277Z,3.7
2023-03-31T17:05:11.976Z,3.9
2023-03-31T17:10:00.563Z,4.2
2023-03-31T17:15:00.236Z,4.3
2023-03-31T17:20:00.284Z,5.5
2023-03-31T17:25:00.266Z,4.8
2023-03-31T17:30:00.397Z,2.6
2023-03-31T17:35:00.254Z,3.2
2023-03-31T17:40:00.308Z,3.5
2023-03-31T17:45:00.268Z,3.9
2023-03-31T17:50:00.301Z,5.3
2023-03-31T17:55:00.279Z,5.9
2023-03-31T18:00:00.315Z,10.9
2023-03-31T18:05:00.272Z,5.1
2023-03-31T18:10:00.292Z,4.9
2023-03-31T18:15:00.287Z,5.2
2023-03-31T18:20:00.285Z,6.2
2023-03-31T18:25:00.219Z,5.1
2023-03-31T18:30:00.647Z,7.2
2023-03-31T18:35:00.246Z,6.0
2023-03-31T18:40:00.276Z,6.2
2023-03-31T18:45:00.265Z,8.7
2023-03-31T18:50:00.316Z,7.1
2023-03-31T18:55:00.261Z,4.9
2023-03-31T19:00:00.274Z,4.3
2023-03-31T19:05:00.263Z,5.0
2023-03-31T19:10:00.295Z,5.2
2023-03-31T19:15:00.277Z,4.9
2023-03-31T19:20:00.286Z,5.0
2023-03-31T19:25:00.241Z,7.0
2023-03-31T19:30:00.296Z,5.6
2023-03-31T19:35:00.281Z,6.7
2023-03-31T19:40:00.287Z,9.6
2023-03-31T19:45:00.236Z,13.0
2023-03-31T19:50:00.277Z,9.9
2023-03-31T19:55:00.282Z,6.9
2023-03-31T20:00:00.270Z,6.5
2023-03-31T20:05:00.254Z,9.0
2023-03-31T20:10:00.279Z,6.5
2023-03-31T20:15:00.281Z,7.8
2023-03-31T20:20:00.269Z,8.5
2023-03-31T20:25:00.241Z,6.6
2023-03-31T20:30:00.294Z,7.5
2023-03-31T20:35:00.287Z,6.5
2023-03-31T20:40:00.286Z,6.2
2023-03-31T20:45:00.230Z,5.5
2023-03-31T20:50:00.282Z,7.7
2023-03-31T20:55:00.274Z,9.0
2023-03-31T21:00:00.292Z,8.1
2023-03-31T21:05:00.250Z,11.6
2023-03-31T21:10:00.295Z,7.4
2023-03-31T21:15:00.256Z,7.6
2023-03-31T21:20:00.274Z,6.8
2023-03-31T21:25:00.292Z,4.0
2023-03-31T21:30:00.319Z,5.1
2023-03-31T21:35:00.249Z,7.8
2023-03-31T21:40:00.289Z,5.9
2023-03-31T21:45:00.284Z,7.3
2023-03-31T21:50:00.281Z,6.0
2023-03-31T21:55:00.241Z,5.1
2023-03-31T22:00:00.332Z,7.7
2023-03-31T22:05:00.327Z,7.3
2023-03-31T22:10:00.301Z,7.3
2023-03-31T22:15:00.443Z,10.0
2023-03-31T22:20:00.289Z,8.7
2023-03-31T22:25:00.278Z,8.2
2023-03-31T22:30:00.346Z,9.7
2023-03-31T22:35:00.265Z,7.3
2023-03-31T22:40:00.257Z,8.8
2023-03-31T22:45:00.290Z,8.4
2023-03-31T22:50:00.244Z,6.4
2023-03-31T22:55:00.276Z,11.4
2023-03-31T23:00:00.289Z,7.9
2023-03-31T23:05:00.283Z,8.8
2023-03-31T23:10:00.278Z,9.8
2023-03-31T23:15:00.300Z,8.8
2023-03-31T23:20:00.279Z,10.9
2023-03-31T23:25:00.280Z,9.1
2023-03-31T23:30:00.235Z,11.2
2023-03-31T23:35:00.282Z,6.1
2023-03-31T23:40:00.258Z,7.9
2023-03-31T23:45:00.283Z,8.3
2023-03-31T23:50:00.291Z,12.9
2023-03-31T23:55:00.330Z,8.7
